createdAt,value
2022-12-24T00:01:38.023Z,99726.78
2022-12-24T00:04:07.040Z,99726.31
2022-12-24T00:06:35.923Z,99726.22
2022-12-24T00:09:05.447Z,99725.25
2022-12-24T00:11:35.755Z,99719.53
2022-12-24T00:14:04.384Z,99717.53
2022-12-24T00:16:32.990Z,99719.88
2022-12-24T00:19:01.696Z,99731.81
2022-12-24T00:21:30.313Z,99731.06
2022-12-24T00:23:58.670Z,99744.09
2022-12-24T00:26:27.214Z,99727.66
2022-12-24T00:28:57.421Z,99730.50
2022-12-24T00:31:39.995Z,99722.28
2022-12-24T00:34:08.856Z,99726.09
2022-12-24T00:36:39.247Z,99727.66
2022-12-24T00:39:07.909Z,99724.78
2022-12-24T00:41:36.615Z,99719.03
2022-12-24T00:44:10.489Z,99726.22
2022-12-24T00:46:40.827Z,99723.59
2022-12-24T00:49:10.848Z,99738.38
2022-12-24T00:51:39.580Z,99729.06
2022-12-24T00:54:08.636Z,99737.69
2022-12-24T00:56:37.267Z,99739.81
2022-12-24T00:59:07.525Z,99747.56
2022-12-24T01:01:37.035Z,99744.59
2022-12-24T01:04:19.604Z,99741.25
2022-12-24T01:06:47.877Z,99735.19
2022-12-24T01:09:16.665Z,99742.53
2022-12-24T01:11:46.770Z,99729.31
2022-12-24T01:14:16.695Z,99741.22
2022-12-24T01:16:45.356Z,99746.56
2022-12-24T01:19:14.375Z,99747.03
2022-12-24T01:21:43.014Z,99755.34
2022-12-24T01:24:15.910Z,99742.38
2022-12-24T01:26:44.534Z,99742.03
2022-12-24T01:29:13.469Z,99735.59
2022-12-24T01:31:43.587Z,99742.84
2022-12-24T01:34:12.527Z,99747.63
2022-12-24T01:36:41.287Z,99752.28
2022-12-24T01:39:09.652Z,99744.75
2022-12-24T01:41:55.761Z,99753.56
2022-12-24T01:44:35.338Z,99749.31
2022-12-24T01:47:10.585Z,99743.84
2022-12-24T01:49:42.789Z,99751.34
2022-12-24T01:52:14.510Z,99743.16
2022-12-24T01:54:46.634Z,99743.75
2022-12-24T01:57:19.653Z,99748.13
2022-12-24T01:59:55.966Z,99749.91
2022-12-24T02:02:27.302Z,99750.66
2022-12-24T02:05:02.761Z,99754.78
2022-12-24T02:07:32.330Z,99764.53
2022-12-24T02:10:02.732Z,99765.50
2022-12-24T02:12:35.388Z,99767.63
2022-12-24T02:15:04.943Z,99773.31
2022-12-24T02:17:44.844Z,99784.19
2022-12-24T02:20:34.607Z,99775.28
2022-12-24T02:23:37.588Z,99776.56
2022-12-24T02:26:20.219Z,99773.94
2022-12-24T02:29:14.463Z,99773.31
2022-12-24T02:31:47.782Z,99783.19
2022-12-24T02:34:21.356Z,99782.97
2022-12-24T02:36:55.732Z,99782.53
2022-12-24T02:39:30.418Z,99776.22
2022-12-24T02:42:09.383Z,99778.56
2022-12-24T02:44:45.003Z,99786.75
2022-12-24T02:47:18.863Z,99789.16
2022-12-24T02:49:50.598Z,99786.84
2022-12-24T02:52:33.873Z,99795.63
2022-12-24T02:55:09.419Z,99792.88
2022-12-24T02:57:55.834Z,99785.53
2022-12-24T03:00:25.745Z,99788.06
2022-12-24T03:03:21.113Z,99785.84
2022-12-24T03:05:53.405Z,99781.16
2022-12-24T03:08:36.248Z,99775.28
2022-12-24T03:11:13.209Z,99773.00
2022-12-24T03:13:43.030Z,99789.69
2022-12-24T03:16:15.632Z,99780.28
2022-12-24T03:18:49.165Z,99793.00
2022-12-24T03:21:22.407Z,99783.84
2022-12-24T03:23:51.324Z,99783.22
2022-12-24T03:26:21.645Z,99776.13
2022-12-24T03:28:50.699Z,99782.81
2022-12-24T03:31:20.270Z,99784.16
2022-12-24T03:33:50.992Z,99781.84
2022-12-24T03:36:19.801Z,99780.78
2022-12-24T03:38:48.489Z,99782.56
2022-12-24T03:41:16.953Z,99781.63
2022-12-24T03:43:45.334Z,99783.31
2022-12-24T03:46:13.989Z,99783.81
2022-12-24T03:48:42.942Z,99780.84
2022-12-24T03:51:20.065Z,99783.91
2022-12-24T03:53:48.697Z,99781.56
2022-12-24T03:56:17.370Z,99778.09
2022-12-24T03:58:46.174Z,99770.13
2022-12-24T04:01:15.024Z,99769.69
2022-12-24T04:03:44.134Z,99766.25
2022-12-24T04:06:18.161Z,99779.03
2022-12-24T04:08:49.793Z,99764.88
2022-12-24T04:11:18.875Z,99771.28
2022-12-24T04:13:47.518Z,99777.25
2022-12-24T04:16:20.200Z,99781.31
2022-12-24T04:18:48.925Z,99786.72
2022-12-24T04:21:18.122Z,99771.09
2022-12-24T04:23:48.092Z,99768.47
2022-12-24T04:26:18.235Z,99763.34
2022-12-24T04:28:46.737Z,99778.75
2022-12-24T04:31:18.678Z,99771.81
2022-12-24T04:33:48.241Z,99769.66
2022-12-24T04:36:20.418Z,99776.72
2022-12-24T04:38:50.156Z,99778.28
2022-12-24T04:41:24.391Z,99774.00
2022-12-24T04:43:54.498Z,99764.34
2022-12-24T04:46:26.915Z,99762.91
2022-12-24T04:48:56.650Z,99763.72
2022-12-24T04:51:26.408Z,99758.03
2022-12-24T04:53:55.399Z,99762.31
2022-12-24T04:56:28.701Z,99764.47
2022-12-24T04:58:57.757Z,99756.50
2022-12-24T05:01:29.322Z,99761.75
2022-12-24T05:03:59.317Z,99760.44
2022-12-24T05:06:31.985Z,99753.31
2022-12-24T05:09:01.520Z,99753.78
2022-12-24T05:11:32.545Z,99758.66
2022-12-24T05:14:01.187Z,99756.03
2022-12-24T05:16:29.926Z,99752.09
2022-12-24T05:18:58.602Z,99756.88
2022-12-24T05:21:27.265Z,99768.22
2022-12-24T05:24:13.463Z,99772.41
2022-12-24T05:26:46.140Z,99767.16
2022-12-24T05:29:15.075Z,99766.78
2022-12-24T05:31:47.932Z,99768.56
2022-12-24T05:34:17.746Z,99763.19
2022-12-24T05:36:47.264Z,99763.44
2022-12-24T05:39:17.246Z,99761.78
2022-12-24T05:41:47.936Z,99775.25
2022-12-24T05:44:16.897Z,99772.03
2022-12-24T05:46:46.599Z,99781.56
2022-12-24T05:49:16.084Z,99785.72
2022-12-24T05:51:44.996Z,99777.38
2022-12-24T05:54:13.733Z,99781.66
2022-12-24T05:56:42.537Z,99781.44
2022-12-24T05:59:12.595Z,99787.03
2022-12-24T06:01:41.401Z,99799.00
2022-12-24T06:04:09.989Z,99801.97
2022-12-24T06:06:38.643Z,99804.59
2022-12-24T06:09:07.279Z,99826.03
2022-12-24T06:11:36.855Z,99821.72
2022-12-24T06:14:05.557Z,99826.50
2022-12-24T06:16:35.808Z,99837.00
2022-12-24T06:19:04.364Z,99830.28
2022-12-24T06:21:33.034Z,99833.25
2022-12-24T06:24:02.025Z,99825.28
2022-12-24T06:26:30.804Z,99828.00
2022-12-24T06:28:59.470Z,99834.22
2022-12-24T06:31:28.049Z,99828.75
2022-12-24T06:33:58.153Z,99826.47
2022-12-24T06:36:27.075Z,99829.69
2022-12-24T06:38:56.628Z,99825.03
2022-12-24T06:41:25.630Z,99825.97
2022-12-24T06:43:54.894Z,99823.84
2022-12-24T06:46:24.060Z,99832.06
2022-12-24T06:48:55.231Z,99817.59
2022-12-24T06:51:25.238Z,99824.41
2022-12-24T06:53:55.269Z,99829.53
2022-12-24T06:56:24.124Z,99833.94
2022-12-24T06:58:52.712Z,99830.69
2022-12-24T07:01:24.903Z,99826.66
2022-12-24T07:03:53.925Z,99825.56
2022-12-24T07:06:28.723Z,99830.94
2022-12-24T07:08:57.549Z,99829.78
2022-12-24T07:11:27.565Z,99822.75
2022-12-24T07:13:56.115Z,99824.28
2022-12-24T07:16:24.863Z,99811.59
2022-12-24T07:18:53.502Z,99818.88
2022-12-24T07:21:22.404Z,99812.31
2022-12-24T07:23:52.396Z,99812.06
2022-12-24T07:26:21.156Z,99812.06
2022-12-24T07:28:49.755Z,99810.72
2022-12-24T07:31:18.369Z,99815.09
2022-12-24T07:33:47.013Z,99804.06
2022-12-24T07:36:21.394Z,99806.13
2022-12-24T07:38:52.880Z,99805.00
2022-12-24T07:41:21.976Z,99801.38
2022-12-24T07:43:50.722Z,99804.44
2022-12-24T07:46:19.364Z,99801.91
2022-12-24T07:48:47.917Z,99806.44
2022-12-24T07:51:16.612Z,99802.53
2022-12-24T07:53:48.124Z,99805.47
2022-12-24T07:56:19.378Z,99823.41
2022-12-24T07:58:48.845Z,99830.09
2022-12-24T08:01:17.954Z,99832.94
2022-12-24T08:03:46.942Z,99834.44
2022-12-24T08:06:15.551Z,99843.53
2022-12-24T08:08:44.366Z,99839.13
2022-12-24T08:11:13.652Z,99831.56
2022-12-24T08:13:43.714Z,99827.09
2022-12-24T08:16:12.805Z,99817.41
2022-12-24T08:18:42.024Z,99814.00
2022-12-24T08:21:11.735Z,99817.72
2022-12-24T08:23:40.634Z,99815.63
2022-12-24T08:26:10.376Z,99811.41
2022-12-24T08:28:39.461Z,99812.84
2022-12-24T08:31:09.433Z,99823.22
2022-12-24T08:33:38.249Z,99831.47
2022-12-24T08:36:07.433Z,99835.19
2022-12-24T08:38:35.977Z,99835.53
2022-12-24T08:41:04.439Z,99842.84
2022-12-24T08:43:33.386Z,99848.81
2022-12-24T08:46:05.631Z,99850.25
2022-12-24T08:48:38.473Z,99856.34
2022-12-24T08:51:10.318Z,99856.34
2022-12-24T08:53:39.367Z,99854.47
2022-12-24T08:56:11.703Z,99850.47
2022-12-24T08:58:40.657Z,99847.97
2022-12-24T09:01:15.169Z,99846.44
2022-12-24T09:03:46.115Z,99844.16
2022-12-24T09:06:15.379Z,99840.69
2022-12-24T09:08:43.878Z,99834.13
2022-12-24T09:11:15.596Z,99825.78
2022-12-24T09:13:45.166Z,99816.81
2022-12-24T09:16:14.727Z,99817.75
2022-12-24T09:18:45.494Z,99819.03
2022-12-24T09:21:17.842Z,99822.53
2022-12-24T09:23:49.659Z,99825.03
2022-12-24T09:26:23.125Z,99820.63
2022-12-24T09:28:53.020Z,99821.56
2022-12-24T09:31:23.445Z,99824.31
2022-12-24T09:33:53.689Z,99825.16
2022-12-24T09:36:23.081Z,99816.22
2022-12-24T09:38:51.647Z,99819.06
2022-12-24T09:41:33.861Z,99818.13
2022-12-24T09:44:09.814Z,99810.38
2022-12-24T09:46:45.672Z,99811.22
2022-12-24T09:49:20.477Z,99799.63
2022-12-24T09:51:55.358Z,99794.63
2022-12-24T09:54:29.540Z,99790.06
2022-12-24T09:57:02.506Z,99792.00
2022-12-24T09:59:43.028Z,99786.09
2022-12-24T10:02:15.625Z,99782.38
2022-12-24T10:04:47.760Z,99782.63
2022-12-24T10:07:32.444Z,99792.63
2022-12-24T10:10:11.184Z,99782.97
2022-12-24T10:12:49.832Z,99791.19
2022-12-24T10:15:27.547Z,99790.00
2022-12-24T10:18:10.792Z,99793.91
2022-12-24T10:20:49.283Z,99788.88
2022-12-24T10:23:26.199Z,99791.34
2022-12-24T10:26:04.781Z,99784.63
2022-12-24T10:28:41.889Z,99791.84
2022-12-24T10:31:12.312Z,99785.59
2022-12-24T10:33:45.207Z,99780.56
2022-12-24T10:36:20.109Z,99774.16
2022-12-24T10:38:48.792Z,99773.38
2022-12-24T10:41:18.939Z,99778.06
2022-12-24T10:43:49.699Z,99789.00
2022-12-24T10:46:23.127Z,99763.63
2022-12-24T10:48:56.602Z,99765.53
2022-12-24T10:51:37.505Z,99769.34
2022-12-24T10:54:15.804Z,99765.34
2022-12-24T10:56:52.897Z,99770.38
2022-12-24T10:59:27.250Z,99757.97
2022-12-24T11:01:59.295Z,99749.91
2022-12-24T11:04:29.815Z,99747.50
2022-12-24T11:07:02.132Z,99742.69
2022-12-24T11:09:32.785Z,99734.81
2022-12-24T11:12:09.626Z,99734.00
2022-12-24T11:14:41.000Z,99735.31
2022-12-24T11:17:22.984Z,99719.56
2022-12-24T11:19:52.705Z,99726.22
2022-12-24T11:22:27.759Z,99725.63
2022-12-24T11:25:04.987Z,99713.16
2022-12-24T11:27:42.637Z,99714.91
2022-12-24T11:30:31.667Z,99707.75
2022-12-24T11:33:21.547Z,99703.06
2022-12-24T11:35:59.429Z,99697.97
2022-12-24T11:38:35.088Z,99689.63
2022-12-24T11:41:11.828Z,99688.38
2022-12-24T11:43:48.573Z,99682.84
2022-12-24T11:46:39.422Z,99688.25
2022-12-24T11:49:18.243Z,99685.34
2022-12-24T11:52:13.746Z,99682.84
2022-12-24T11:54:52.583Z,99688.81
2022-12-24T11:57:25.580Z,99681.16
2022-12-24T11:59:54.239Z,99681.16
2022-12-24T12:02:28.240Z,99685.75
2022-12-24T12:05:00.867Z,99683.63
2022-12-24T12:07:32.522Z,99679.06
2022-12-24T12:10:07.983Z,99666.00
2022-12-24T12:12:42.090Z,99672.66
2022-12-24T12:15:15.847Z,99674.75
2022-12-24T12:17:52.106Z,99681.69
2022-12-24T12:20:25.075Z,99678.34
2022-12-24T12:23:00.565Z,99683.59
2022-12-24T12:25:34.944Z,99671.53
2022-12-24T12:28:06.124Z,99679.00
2022-12-24T12:30:40.829Z,99664.88
2022-12-24T12:34:11.285Z,99670.69
2022-12-24T12:36:45.784Z,99660.56
2022-12-24T12:39:20.155Z,99655.84
2022-12-24T12:42:00.252Z,99654.19
2022-12-24T12:44:50.429Z,99656.16
2022-12-24T12:47:42.224Z,99651.00
2022-12-24T12:50:19.567Z,99651.56
2022-12-24T12:53:03.709Z,99653.38
2022-12-24T12:55:44.390Z,99651.72
2022-12-24T12:58:20.793Z,99651.72
2022-12-24T13:00:54.839Z,99661.94
2022-12-24T13:03:48.849Z,99673.19
2022-12-24T13:06:41.583Z,99667.44
2022-12-24T13:09:28.885Z,99740.03
2022-12-24T13:12:29.866Z,99780.53
2022-12-24T13:15:11.241Z,99748.75
2022-12-24T13:18:02.834Z,99740.38
2022-12-24T13:20:33.811Z,99743.63
2022-12-24T13:23:12.777Z,99732.66
2022-12-24T13:25:45.816Z,99737.47
2022-12-24T13:28:37.317Z,99729.53
2022-12-24T13:31:30.295Z,99717.50
2022-12-24T13:34:04.267Z,99709.50
2022-12-24T13:37:20.745Z,99705.97
2022-12-24T13:40:19.205Z,99706.91
2022-12-24T13:42:54.025Z,99694.13
2022-12-24T13:45:48.556Z,99683.56
2022-12-24T13:48:36.497Z,99673.06
2022-12-24T13:51:21.556Z,99675.31
2022-12-24T13:53:51.335Z,99681.91
2022-12-24T13:56:28.459Z,99669.81
2022-12-24T13:59:11.945Z,99668.56
2022-12-24T14:01:45.472Z,99649.94
2022-12-24T14:04:25.543Z,99655.31
2022-12-24T14:06:56.056Z,99655.31
2022-12-24T14:09:26.980Z,99662.81
2022-12-24T14:12:32.059Z,99659.72
2022-12-24T14:15:21.243Z,99649.69
2022-12-24T14:17:49.842Z,99654.38
2022-12-24T14:20:20.177Z,99650.53
2022-12-24T14:22:48.733Z,99644.91
2022-12-24T14:25:20.046Z,99643.59
2022-12-24T14:27:58.087Z,99655.06
2022-12-24T14:30:28.352Z,99680.13
2022-12-24T14:32:58.498Z,99672.75
2022-12-24T14:35:31.214Z,99657.81
2022-12-24T14:38:03.612Z,99662.09
2022-12-24T14:40:35.456Z,99653.72
2022-12-24T14:43:13.478Z,99689.19
2022-12-24T14:45:48.565Z,99644.31
2022-12-24T14:48:24.017Z,99667.50
2022-12-24T14:51:15.752Z,99654.00
2022-12-24T14:54:04.397Z,99636.09
2022-12-24T14:56:33.422Z,99636.09
2022-12-24T14:59:05.381Z,99622.38
2022-12-24T15:01:35.725Z,99629.78
2022-12-24T15:04:15.774Z,99618.44
2022-12-24T15:06:49.744Z,99608.06
2022-12-24T15:09:22.635Z,99612.09
2022-12-24T15:11:54.144Z,99609.84
2022-12-24T15:14:25.592Z,99612.47
2022-12-24T15:16:58.611Z,99597.56
2022-12-24T15:19:33.571Z,99582.69
2022-12-24T15:22:04.536Z,99580.28
2022-12-24T15:24:35.363Z,99582.91
2022-12-24T15:27:16.913Z,99601.13
2022-12-24T15:29:48.144Z,99600.69
2022-12-24T15:32:19.164Z,99616.78
2022-12-24T15:35:00.593Z,99591.38
2022-12-24T15:37:33.595Z,99574.22
2022-12-24T15:40:09.540Z,99589.94
2022-12-24T15:42:43.779Z,99570.75
2022-12-24T15:45:26.724Z,99584.78
2022-12-24T15:47:59.280Z,99626.66
2022-12-24T15:50:33.391Z,99638.00
2022-12-24T15:53:21.038Z,99637.16
2022-12-24T15:56:07.760Z,99614.38
2022-12-24T15:58:39.409Z,99631.66
2022-12-24T16:01:29.528Z,99624.66
2022-12-24T16:04:01.707Z,99583.38
2022-12-24T16:06:54.735Z,99571.44
2022-12-24T16:09:42.282Z,99522.81
2022-12-24T16:12:17.842Z,99496.84
2022-12-24T16:14:55.709Z,99512.56
2022-12-24T16:17:26.667Z,99534.75
2022-12-24T16:19:58.955Z,99525.19
2022-12-24T16:22:35.488Z,99521.63
2022-12-24T16:25:25.782Z,99528.28
2022-12-24T16:27:58.403Z,99511.72
2022-12-24T16:30:30.442Z,99524.97
2022-12-24T16:32:58.970Z,99521.75
2022-12-24T16:35:30.311Z,99517.47
2022-12-24T16:37:59.004Z,99517.31
2022-12-24T16:40:30.363Z,99510.91
2022-12-24T16:43:16.382Z,99493.38
2022-12-24T16:45:46.740Z,99483.34
2022-12-24T16:48:22.395Z,99499.22
2022-12-24T16:50:52.871Z,99496.34
2022-12-24T16:53:23.298Z,99490.16
2022-12-24T16:55:53.787Z,99498.97
2022-12-24T16:58:23.404Z,99521.38
2022-12-24T17:00:52.039Z,99520.28
2022-12-24T17:03:21.858Z,99518.53
2022-12-24T17:05:51.835Z,99505.28
2022-12-24T17:08:20.574Z,99507.09
2022-12-24T17:10:54.459Z,99507.91
2022-12-24T17:13:23.112Z,99506.97
2022-12-24T17:15:52.745Z,99520.19
2022-12-24T17:18:22.872Z,99515.78
2022-12-24T17:21:01.152Z,99508.63
2022-12-24T17:23:30.123Z,99523.78
2022-12-24T17:26:00.500Z,99518.19
2022-12-24T17:28:28.935Z,99528.41
2022-12-24T17:30:59.123Z,99524.13
2022-12-24T17:33:27.844Z,99515.78
2022-12-24T17:35:58.523Z,99502.81
2022-12-24T17:38:27.100Z,99485.38
2022-12-24T17:41:03.920Z,99483.72
2022-12-24T17:43:33.909Z,99493.13
2022-12-24T17:46:07.302Z,99489.09
2022-12-24T17:48:37.178Z,99493.38
2022-12-24T17:51:07.290Z,99500.28
2022-12-24T17:53:36.654Z,99487.16
2022-12-24T17:56:12.527Z,99476.81
2022-12-24T17:58:41.264Z,99473.22
2022-12-24T18:01:13.144Z,99490.75
2022-12-24T18:03:42.251Z,99487.88
2022-12-24T18:06:15.965Z,99487.78
2022-12-24T18:08:47.038Z,99485.38
2022-12-24T18:11:20.421Z,99489.66
2022-12-24T18:13:51.090Z,99487.41
2022-12-24T18:16:24.852Z,99483.13
2022-12-24T18:18:55.253Z,99477.50
2022-12-24T18:21:25.967Z,99477.41
2022-12-24T18:23:57.234Z,99488.59
2022-12-24T18:26:30.272Z,99494.81
2022-12-24T18:29:06.503Z,99500.03
2022-12-24T18:31:36.640Z,99508.59
2022-12-24T18:34:15.019Z,99508.75
2022-12-24T18:36:43.693Z,99511.22
2022-12-24T18:39:12.402Z,99508.03
2022-12-24T18:41:43.463Z,99519.72
2022-12-24T18:44:12.262Z,99516.25
2022-12-24T18:46:42.219Z,99531.16
2022-12-24T18:49:12.609Z,99521.25
2022-12-24T18:51:42.633Z,99527.19
2022-12-24T18:54:11.358Z,99529.00
2022-12-24T18:56:40.135Z,99532.94
2022-12-24T18:59:11.320Z,99531.63
2022-12-24T19:01:42.205Z,99537.34
2022-12-24T19:04:11.163Z,99540.69
2022-12-24T19:06:40.048Z,99538.31
2022-12-24T19:09:09.107Z,99536.66
2022-12-24T19:11:39.970Z,99536.16
2022-12-24T19:14:13.884Z,99540.09
2022-12-24T19:16:42.706Z,99542.34
2022-12-24T19:19:12.800Z,99528.06
2022-12-24T19:21:41.444Z,99529.00
2022-12-24T19:24:11.613Z,99518.88
2022-12-24T19:26:40.347Z,99519.72
2022-12-24T19:29:10.339Z,99516.38
2022-12-24T19:31:38.957Z,99517.56
2022-12-24T19:34:08.586Z,99515.91
2022-12-24T19:36:37.123Z,99511.00
2022-12-24T19:39:06.543Z,99512.78
2022-12-24T19:41:35.095Z,99499.66
2022-12-24T19:44:03.827Z,99488.81
2022-12-24T19:46:38.706Z,99499.66
2022-12-24T19:49:12.898Z,99499.44
2022-12-24T19:51:42.819Z,99497.50
2022-12-24T19:54:18.714Z,99497.59
2022-12-24T19:56:48.444Z,99500.56
2022-12-24T19:59:18.303Z,99496.41
2022-12-24T20:01:48.596Z,99500.31
2022-12-24T20:04:18.931Z,99501.53
2022-12-24T20:06:47.485Z,99516.56
2022-12-24T20:09:16.251Z,99513.69
2022-12-24T20:11:44.930Z,99516.06
2022-12-24T20:14:13.407Z,99518.84
2022-12-24T20:16:41.860Z,99523.72
2022-12-24T20:19:16.534Z,99529.47
2022-12-24T20:21:46.131Z,99528.88
2022-12-24T20:24:15.301Z,99526.13
2022-12-24T20:26:44.077Z,99527.53
2022-12-24T20:29:13.897Z,99519.94
2022-12-24T20:31:43.132Z,99533.50
2022-12-24T20:34:14.042Z,99535.53
2022-12-24T20:36:44.550Z,99534.00
2022-12-24T20:39:14.416Z,99529.13
2022-12-24T20:41:43.042Z,99527.09
2022-12-24T20:44:12.457Z,99537.13
2022-12-24T20:46:42.808Z,99542.81
2022-12-24T20:49:14.581Z,99546.88
2022-12-24T20:51:43.224Z,99551.44
2022-12-24T20:54:13.377Z,99544.38
2022-12-24T20:56:44.070Z,99546.66
2022-12-24T20:59:12.664Z,99545.72
2022-12-24T21:01:41.347Z,99539.16
2022-12-24T21:04:10.842Z,99544.50
2022-12-24T21:06:41.088Z,99554.03
2022-12-24T21:09:09.879Z,99553.81
2022-12-24T21:11:56.296Z,99555.50
2022-12-24T21:14:27.358Z,99559.06
2022-12-24T21:16:56.806Z,99568.97
2022-12-24T21:19:27.014Z,99563.81
2022-12-24T21:21:57.169Z,99571.94
2022-12-24T21:24:26.441Z,99569.53
2022-12-24T21:26:56.297Z,99575.63
2022-12-24T21:29:24.971Z,99570.25
2022-12-24T21:31:54.715Z,99565.25
2022-12-24T21:34:23.473Z,99578.84
2022-12-24T21:36:52.003Z,99563.09
2022-12-24T21:39:21.979Z,99561.78
2022-12-24T21:41:50.609Z,99568.13
2022-12-24T21:44:20.341Z,99560.84
2022-12-24T21:46:49.905Z,99564.78
2022-12-24T21:49:36.836Z,99562.16
2022-12-24T21:52:06.584Z,99568.13
2022-12-24T21:54:37.093Z,99574.81
2022-12-24T21:57:25.309Z,99567.41
2022-12-24T21:59:55.095Z,99554.88
2022-12-24T22:02:29.105Z,99565.00
2022-12-24T22:04:57.952Z,99553.81
2022-12-24T22:07:45.935Z,99564.78
2022-12-24T22:10:34.109Z,99556.53
2022-12-24T22:13:06.399Z,99565.72
2022-12-24T22:15:35.892Z,99560.00
2022-12-24T22:18:04.795Z,99562.63
2022-12-24T22:20:33.413Z,99569.53
2022-12-24T22:23:02.323Z,99558.56
2022-12-24T22:25:33.930Z,99556.69
2022-12-24T22:28:02.549Z,99569.41
2022-12-24T22:30:31.272Z,99573.72
2022-12-24T22:33:00.859Z,99568.84
2022-12-24T22:35:29.762Z,99576.69
2022-12-24T22:38:00.696Z,99589.00
2022-12-24T22:40:30.590Z,99582.06
2022-12-24T22:43:00.813Z,99580.63
2022-12-24T22:45:29.436Z,99573.34
2022-12-24T22:47:58.535Z,99564.19
2022-12-24T22:50:27.284Z,99555.59
2022-12-24T22:52:55.971Z,99558.09
2022-12-24T22:55:25.680Z,99556.78
2022-12-24T22:57:54.354Z,99566.56
2022-12-24T23:14:01.868Z,99556.19
2022-12-24T23:16:32.226Z,99558.56
2022-12-24T23:19:02.887Z,99554.75
2022-12-24T23:21:33.525Z,99549.28
